Terminal Aerodrome Forecast
Issued by NWS Knoxville/Tri Cities, TN

Home | Current Version | Previous Version | Text Only | Print | Product List | Glossary On
Versions: 1 2 3 4 5 6 7 8 9 10 11 12 13 14 15 16 17 18 19 20 21 22 23 24 25 26 27 28 29 30
000
FTUS44 KMRX 232323
TAFTYS
TAF
KTYS 232323Z 2400/2424 VRB05KT P6SM SCT040 BKN150
     FM240500 VRB05KT P6SM VCSH BKN035
      TEMPO 2406/2409 30015G25KT 3SM -TSRA BR BKN020CB
     FM240900 24005KT 6SM BR OVC010
     FM241400 24008KT P6SM BKN020
     FM241800 26009KT P6SM BKN035=

USA.gov is the U.S. government's official web portal to all federal, state and local government web resources and services.